Data for 11/12/2017

Time Sea-Level Adjusted Pressure Absolute Pressure Temperature Relative Humidity Dew Point   
(mb) (inHg) (mb) (inHg) (C) (F) (%) (C) (F)
00:05 1023 30.21 852 25.16 -2.4 27.6 74 -6.5 20.3
00:10 1023 30.21 852 25.16 -1.9 28.5 72 -6.3 20.6
00:15 1023 30.21 852 25.16 -1.7 29 72 -6.1 21.1
00:20 1023 30.21 852 25.16 -1.6 29.1 71 -6.3 20.7
00:25 1023 30.21 852 25.16 -1.5 29.4 70 -6.2 20.8
00:30 1023 30.21 852 25.16 -1.4 29.5 70 -6.1 20.9
00:35 1023 30.21 852 25.16 -1.4 29.5 70 -6.1 20.9
00:40 1023 30.21 852 25.16 -1.6 29.2 71 -6.2 20.9
00:45 1023 30.21 852 25.16 -2 28.4 72 -6.3 20.6
00:50 1023 30.21 852 25.16 -2.1 28.3 72 -6.5 20.3
00:55 1023 30.21 852 25.16 -1.8 28.7 70 -6.5 20.2
01:00 1023 30.21 852 25.16 -2 28.4 71 -6.5 20.3
01:05 1023 30.21 852 25.16 -2.1 28.2 72 -6.4 20.4
01:10 1023 30.21 852 25.16 -2.3 27.9 72 -6.6 20.1
01:15 1023 30.21 852 25.16 -2.4 27.6 73 -6.6 20.2
01:20 1023 30.21 852 25.16 -2.4 27.7 73 -6.6 20.1
01:25 1023 30.21 852 25.16 -2.6 27.4 74 -6.6 20
01:30 1023 30.21 852 25.16 -2.7 27.2 74 -6.7 19.9
01:35 1023 30.21 852 25.16 -2.7 27.1 74 -6.8 19.8
01:40 1023 30.21 852 25.16 -2.6 27.2 73 -6.8 19.8
01:45 1023 30.21 852 25.16 -2.5 27.6 73 -6.7 19.9
01:50 1023 30.21 852 25.16 -2.4 27.6 73 -6.7 20
01:55 1023 30.21 852 25.16 -2.4 27.6 73 -6.6 20.1
02:00 1023 30.21 852 25.16 -2.5 27.5 73 -6.7 20
02:05 1023 30.21 852 25.16 -2.6 27.3 74 -6.7 19.9
02:10 1023 30.21 852 25.16 -2.8 27 74 -6.9 19.6
02:15 1023 30.21 852 25.16 -2.8 26.9 74 -6.8 19.7
02:20 1023 30.21 852 25.16 -2.9 26.7 74 -6.9 19.5
02:25 1023 30.21 852 25.16 -2.8 26.9 74 -6.9 19.6
02:30 1023 30.21 852 25.16 -2.6 27.3 73 -6.8 19.8
02:35 1023 30.21 852 25.16 -2.4 27.7 73 -6.6 20
02:40 1023 30.21 852 25.16 -2.3 27.8 73 -6.6 20.1
02:45 1023 30.21 852 25.16 -2.5 27.6 73 -6.6 20.2
02:50 1023 30.21 852 25.16 -2.3 27.9 72 -6.7 19.9
02:55 1023 30.21 852 25.16 -2 28.3 71 -6.6 20.1
03:00 1023 30.21 852 25.16 -2.3 27.9 72 -6.6 20.1
03:05 1022 30.18 852 25.16 -2.6 27.3 73 -6.8 19.7
03:10 1022 30.18 852 25.16 -2.7 27.2 73 -6.9 19.7
03:15 1023 30.21 852 25.16 -2.6 27.4 73 -6.8 19.7
03:20 1023 30.21 852 25.16 -2.7 27.2 73 -6.8 19.7
03:25 1023 30.21 852 25.16 -2.6 27.3 72 -6.9 19.6
03:30 1023 30.21 852 25.16 -2.5 27.5 72 -6.9 19.6
03:35 1023 30.21 852 25.16 -2.5 27.5 72 -6.9 19.6
03:40 1023 30.21 852 25.16 -2.6 27.3 73 -6.9 19.7
03:45 1023 30.21 852 25.16 -2.6 27.3 71 -7.1 19.3
03:50 1022 30.18 852 25.16 -2.5 27.5 72 -7 19.5
03:55 1022 30.18 852 25.16 -2.6 27.3 72 -7.1 19.3
04:00 1022 30.18 852 25.16 -2.7 27.1 72 -7 19.4
04:05 1022 30.18 851 25.13 -2.7 27.1 72 -7 19.3
04:10 1022 30.18 852 25.16 -2.7 27.2 72 -7.1 19.2
04:15 1022 30.18 852 25.16 -2.9 26.9 71 -7.3 18.8
04:20 1022 30.18 852 25.16 -2.8 27 73 -7 19.4
04:25 1022 30.18 852 25.16 -2.9 26.7 72 -7.3 18.8
04:30 1022 30.18 852 25.16 -2.6 27.2 71 -7.2 19
04:35 1022 30.18 852 25.16 -2.3 27.9 68 -7.5 18.6
04:40 1022 30.18 852 25.16 -1.9 28.5 67 -7.2 19
04:45 1022 30.18 852 25.16 -2.1 28.1 68 -7.2 19.1
04:50 1022 30.18 852 25.16 -2.6 27.3 70 -7.3 18.8
04:55 1023 30.21 852 25.16 -2.7 27.2 71 -7.2 19.1
05:00 1023 30.21 852 25.16 -2.9 26.8 71 -7.5 18.6
05:05 1022 30.18 852 25.16 -2.9 26.8 72 -7.3 18.8
05:10 1022 30.18 852 25.16 -2.8 27 70 -7.5 18.6
05:15 1023 30.21 852 25.16 -2.9 26.8 71 -7.4 18.7
05:20 1023 30.21 852 25.16 -3 26.7 71 -7.4 18.6
05:25 1023 30.21 852 25.16 -2.9 26.8 71 -7.5 18.4
05:30 1023 30.21 852 25.16 -2.7 27.1 70 -7.5 18.5
05:35 1023 30.21 852 25.16 -2.7 27.2 70 -7.4 18.7
05:40 1023 30.21 852 25.16 -2.7 27.1 69 -7.5 18.4
05:45 1023 30.21 852 25.16 -2.7 27.1 70 -7.4 18.7
05:50 1023 30.21 852 25.16 -2.8 26.9 71 -7.4 18.6
05:55 1023 30.21 852 25.16 -3 26.6 71 -7.4 18.6
06:00 1023 30.21 852 25.16 -3 26.5 71 -7.6 18.3
06:05 1023 30.21 852 25.16 -3.5 25.7 72 -7.8 18
06:10 1022 30.18 852 25.16 -3.8 25.1 73 -7.9 17.7
06:15 1022 30.18 852 25.16 -3.8 25.2 73 -7.9 17.8
06:20 1022 30.18 852 25.16 -3.7 25.3 74 -7.7 18.1
06:25 1022 30.18 851 25.13 -3.5 25.7 74 -7.6 18.4
06:30 1022 30.18 851 25.13 -3.3 26.1 73 -7.5 18.6
06:35 1022 30.18 851 25.13 -3.2 26.3 72 -7.5 18.5
06:40 1022 30.18 852 25.16 -2.9 26.7 73 -7.2 19.1
06:45 1022 30.18 852 25.16 -2.7 27.1 72 -7.2 19.1
06:50 1022 30.18 852 25.16 -2.6 27.2 72 -7.1 19.2
06:55 1022 30.18 852 25.16 -2.5 27.5 70 -7.2 19
07:00 1022 30.18 852 25.16 -2.3 27.9 69 -7.2 19
07:05 1022 30.18 852 25.16 -2.5 27.4 71 -7.1 19.2
07:10 1022 30.18 852 25.16 -3.1 26.5 72 -7.4 18.7
07:15 1022 30.18 852 25.16 -3.2 26.2 72 -7.5 18.5
07:20 1022 30.18 852 25.16 -3 26.6 72 -7.5 18.6
07:25 1022 30.18 852 25.16 -2.8 26.9 72 -7.3 18.9
07:30 1022 30.18 852 25.16 -2.9 26.7 72 -7.3 18.8
07:35 1022 30.18 852 25.16 -2.8 27 70 -7.4 18.7
07:40 1022 30.18 852 25.16 -2.6 27.3 69 -7.5 18.5
07:45 1023 30.21 852 25.16 -2.5 27.5 69 -7.4 18.6
07:50 1023 30.21 852 25.16 -2.4 27.7 69 -7.4 18.8
07:55 1023 30.21 852 25.16 -2.3 27.9 68 -7.4 18.6
08:00 1023 30.21 852 25.16 -2.1 28.3 67 -7.4 18.7
08:05 1023 30.21 852 25.16 -2.1 28.2 67 -7.4 18.8
08:10 1023 30.21 852 25.16 -2.1 28.2 68 -7.3 18.8
08:15 1023 30.21 852 25.16 -2 28.4 68 -7.2 19
08:20 1023 30.21 852 25.16 -1.7 28.9 67 -7.1 19.3
08:25 1023 30.21 852 25.16 -1.5 29.2 66 -7 19.4
08:30 1023 30.21 852 25.16 -1.5 29.3 67 -7 19.5
08:35 1023 30.21 852 25.16 -1.5 29.3 66 -7 19.4
08:40 1023 30.21 852 25.16 -1.6 29.1 66 -7.1 19.2
08:45 1023 30.21 852 25.16 -1.6 29.1 66 -7.2 19.1
08:50 1023 30.21 852 25.16 -1.6 29 66 -7.2 19
08:55 1023 30.21 852 25.16 -1.6 29.1 66 -7.1 19.2
09:00 1023 30.21 852 25.16 -1.5 29.4 66 -7 19.4
09:05 1022 30.18 852 25.16 -1.3 29.8 66 -6.8 19.7
09:10 1022 30.18 852 25.16 -1 30.1 65 -6.8 19.8
09:15 1022 30.18 851 25.13 -0.8 30.6 64 -6.8 19.8
09:20 1022 30.18 851 25.13 -0.3 31.4 62 -6.7 19.9
09:25 1022 30.18 851 25.13 -0 32 62 -6.5 20.3
09:30 1022 30.18 852 25.16 0.4 32.7 61 -6.4 20.5
09:35 1023 30.21 852 25.16 0.6 33 59 -6.6 20.2
09:40 1023 30.21 852 25.16 1.1 33.9 57 -6.5 20.4
09:45 1023 30.21 852 25.16 1.7 35 56 -6.2 20.9
09:50 1023 30.21 852 25.16 1.4 34.5 58 -6.1 21.1
09:55 1023 30.21 852 25.16 1.2 34.2 59 -6 21.1
10:00 1023 30.21 852 25.16 1.1 34 59 -6 21.1
10:05 1023 30.21 852 25.16 1.2 34.2 58 -6.2 20.9
10:10 1023 30.21 852 25.16 2 35.6 53 -6.6 20.2
10:15 1023 30.21 852 25.16 2 35.7 55 -6.1 21.1
10:20 1022 30.18 852 25.16 1.9 35.4 56 -6 21.1
10:25 1022 30.18 852 25.16 2.2 35.9 55 -5.9 21.4
10:30 1022 30.18 852 25.16 1.8 35.3 56 -6 21.2
10:35 1022 30.18 852 25.16 2.3 36.2 52 -6.6 20.1
10:40 1022 30.18 852 25.16 3 37.5 52 -5.9 21.3
10:45 1022 30.18 852 25.16 2.9 37.2 49 -6.8 19.7
10:50 1022 30.18 852 25.16 3.5 38.3 50 -6 21.3
10:55 1022 30.18 852 25.16 3.4 38.1 52 -5.7 21.8
11:00 1022 30.18 852 25.16 3.5 38.4 52 -5.5 22.2
11:05 1022 30.18 852 25.16 3.7 38.6 51 -5.4 22.3
11:10 1022 30.18 851 25.13 3.5 38.3 52 -5.5 22.1
11:15 1022 30.18 851 25.13 3.6 38.5 49 -6.1 21.1
11:20 1022 30.18 851 25.13 3.8 38.8 51 -5.4 22.2
11:25 1022 30.18 851 25.13 4.2 39.5 51 -5 23
11:30 1022 30.18 851 25.13 4.5 40.1 50 -5.1 22.9
11:35 1022 30.18 851 25.13 4.8 40.6 48 -5.4 22.4
11:40 1022 30.18 851 25.13 5 41 48 -5.1 22.9
11:45 1022 30.18 851 25.13 4.6 40.3 50 -5 23
11:50 1022 30.18 851 25.13 4.6 40.2 49 -5.2 22.6
11:55 1022 30.18 851 25.13 4.6 40.4 49 -5.1 22.8
12:00 1022 30.18 851 25.13 4.8 40.6 49 -5 23
12:05 1022 30.18 851 25.13 4.8 40.6 50 -4.7 23.6
12:10 1022 30.18 851 25.13 4.7 40.5 50 -4.9 23.3
12:15 1022 30.18 851 25.13 4.7 40.5 51 -4.7 23.6
12:20 1022 30.18 851 25.13 4.7 40.4 49 -5.1 22.8
12:25 1022 30.18 851 25.13 4.9 40.9 50 -4.5 23.9
12:30 1022 30.18 851 25.13 4.3 39.7 52 -4.8 23.3
12:35 1022 30.18 851 25.13 4.2 39.5 53 -4.5 23.9
12:40 1022 30.18 851 25.13 4.3 39.8 52 -4.6 23.8
12:45 1021 30.15 851 25.13 4.4 39.9 53 -4.2 24.4
12:50 1021 30.15 851 25.13 3.5 38.3 54 -4.9 23.2
12:55 1021 30.15 851 25.13 3.5 38.3 56 -4.5 23.9
13:00 1021 30.15 850 25.1 3.6 38.4 56 -4.3 24.3
13:05 1021 30.15 850 25.1 3.4 38.1 55 -4.8 23.4
13:10 1021 30.15 850 25.1 3.3 38 57 -4.4 24.2
13:15 1021 30.15 850 25.1 3.2 37.8 56 -4.7 23.5
13:20 1021 30.15 850 25.1 3.7 38.6 54 -4.8 23.4
13:25 1021 30.15 850 25.1 4.5 40.1 51 -4.8 23.4
13:30 1021 30.15 850 25.1 5 41 49 -4.8 23.4
13:35 1021 30.15 850 25.1 5.4 41.7 45 -5.5 22.1
13:40 1021 30.15 850 25.1 5.7 42.3 45 -5.3 22.4
13:45 1021 30.15 850 25.1 5.6 42 46 -5.2 22.7
13:50 1021 30.15 850 25.1 5.6 42 47 -4.8 23.4
13:55 1021 30.15 850 25.1 5.4 41.7 48 -4.7 23.6
14:00 1021 30.15 850 25.1 4.4 40 52 -4.7 23.6
14:05 1021 30.15 850 25.1 4 39.2 52 -4.9 23.2
14:10 1021 30.15 850 25.1 3.7 38.7 54 -4.8 23.4
14:15 1021 30.15 850 25.1 3.9 39 52 -5.1 22.8
14:20 1021 30.15 850 25.1 3.9 39.1 53 -4.7 23.5
14:25 1021 30.15 850 25.1 3.8 38.9 53 -5 23
14:30 1021 30.15 850 25.1 3.8 38.9 54 -4.5 23.9
14:35 1021 30.15 850 25.1 3.6 38.5 56 -4.4 24.1
14:40 1021 30.15 850 25.1 3.4 38.2 56 -4.7 23.6
14:45 1021 30.15 850 25.1 3.3 38 54 -5.1 22.8
14:50 1021 30.15 850 25.1 3.4 38.2 54 -5.1 22.9
14:55 1021 30.15 850 25.1 3.6 38.5 54 -4.9 23.3
15:00 1021 30.15 850 25.1 3.7 38.6 55 -4.5 23.8
15:05 1021 30.15 850 25.1 3.6 38.5 55 -4.5 23.9
15:10 1021 30.15 850 25.1 3.7 38.6 55 -4.7 23.6
15:15 1021 30.15 850 25.1 3.4 38.1 57 -4.4 24.2
15:20 1021 30.15 850 25.1 3.5 38.3 56 -4.5 23.9
15:25 1020 30.12 850 25.1 3.4 38 58 -4.1 24.6
15:30 1020 30.12 850 25.1 3.2 37.8 58 -4.3 24.3
15:35 1020 30.12 850 25.1 3.1 37.6 59 -4.2 24.5
15:40 1020 30.12 850 25.1 3.2 37.7 58 -4.3 24.2
15:45 1020 30.12 850 25.1 3.1 37.5 59 -4.3 24.3
15:50 1020 30.12 850 25.1 2.9 37.1 59 -4.3 24.3
15:55 1020 30.12 850 25.1 3 37.4 59 -4.2 24.5
16:00 1020 30.12 850 25.1 3.1 37.6 58 -4.4 24.1
16:05 1020 30.12 849 25.07 3 37.4 59 -4.3 24.2
16:10 1020 30.12 850 25.1 2.7 36.9 59 -4.5 24
16:15 1020 30.12 850 25.1 2.8 37 60 -4.3 24.2
16:20 1020 30.12 850 25.1 2.8 37.1 59 -4.3 24.3
16:25 1020 30.12 850 25.1 2.7 36.9 59 -4.4 24
16:30 1020 30.12 850 25.1 2.6 36.7 60 -4.4 24.1
16:35 1020 30.12 850 25.1 2.6 36.7 56 -5.3 22.4
16:40 1020 30.12 850 25.1 2.6 36.6 54 -5.9 21.3
16:45 1020 30.12 850 25.1 2.6 36.6 54 -5.9 21.4
16:50 1020 30.12 850 25.1 2.6 36.7 57 -5 23
16:55 1020 30.12 849 25.07 2.6 36.6 55 -5.5 22
17:00 1020 30.12 849 25.07 2.6 36.6 60 -4.5 23.9
17:05 1020 30.12 849 25.07 2.5 36.5 63 -3.9 24.9
17:10 1020 30.12 849 25.07 2.2 36 64 -3.9 25.1
17:15 1020 30.12 849 25.07 1.9 35.5 66 -3.8 25.1
17:20 1020 30.12 849 25.07 1.8 35.2 67 -3.8 25.2
17:25 1020 30.12 850 25.1 1.7 35 68 -3.7 25.4
17:30 1020 30.12 849 25.07 1.7 35 67 -3.8 25.2
17:35 1020 30.12 849 25.07 1.6 34.9 66 -4 24.8
17:40 1020 30.12 849 25.07 1.6 34.8 65 -4.2 24.4
17:45 1020 30.12 849 25.07 1.3 34.4 66 -4.2 24.4
17:50 1020 30.12 849 25.07 1.1 34.1 67 -4.3 24.2
17:55 1020 30.12 849 25.07 1.1 33.9 68 -4.2 24.4
18:00 1020 30.12 849 25.07 1 33.8 68 -4.2 24.4
18:05 1020 30.12 849 25.07 1.1 33.9 69 -4 24.8
18:10 1020 30.12 849 25.07 1 33.8 71 -3.7 25.3
18:15 1020 30.12 849 25.07 1 33.7 73 -3.3 26
18:20 1020 30.12 849 25.07 1.1 34 72 -3.3 26
18:25 1020 30.12 849 25.07 1.1 34 72 -3.3 26
18:30 1020 30.12 849 25.07 1 33.8 69 -4 24.8
18:35 1020 30.12 849 25.07 0.8 33.5 67 -4.6 23.6
18:40 1020 30.12 849 25.07 1.1 34 70 -3.7 25.4
18:45 1020 30.12 849 25.07 1.8 35.2 69 -3.2 26.2
18:50 1020 30.12 849 25.07 1.8 35.2 69 -3.3 26.1
18:55 1020 30.12 849 25.07 1.9 35.3 68 -3.4 25.9
19:00 1020 30.12 849 25.07 1.7 35 70 -3.3 26.1
19:05 1020 30.12 849 25.07 1.7 35 70 -3.3 26.1
19:10 1020 30.12 849 25.07 1.8 35.3 70 -3.1 26.4
19:15 1020 30.12 849 25.07 1.9 35.4 70 -3 26.5
19:20 1020 30.12 849 25.07 2 35.5 71 -2.7 27.1
19:25 1020 30.12 849 25.07 1.6 34.9 73 -2.8 27
19:30 1020 30.12 849 25.07 1.5 34.8 73 -2.9 26.9
19:35 1020 30.12 849 25.07 1.5 34.7 73 -2.9 26.8
19:40 1020 30.12 849 25.07 1.7 35.1 70 -3.2 26.3
19:45 1020 30.12 849 25.07 1.9 35.4 68 -3.4 25.9
19:50 1020 30.12 849 25.07 2.3 36.2 66 -3.5 25.7
19:55 1020 30.12 849 25.07 2.6 36.7 65 -3.3 26.1
20:00 1020 30.12 849 25.07 2.5 36.4 66 -3.3 26
20:05 1020 30.12 849 25.07 2.5 36.4 67 -3.1 26.4
20:10 1020 30.12 849 25.07 2.4 36.4 66 -3.3 26.1
20:15 1019 30.09 849 25.07 2.4 36.4 67 -3.1 26.4
20:20 1019 30.09 849 25.07 2.5 36.5 67 -3 26.6
20:25 1019 30.09 849 25.07 2.4 36.3 66 -3.4 25.9
20:30 1019 30.09 849 25.07 2.5 36.5 66 -3.1 26.4
20:35 1019 30.09 848 25.04 2.4 36.3 67 -3.2 26.3
20:40 1019 30.09 848 25.04 2.4 36.3 66 -3.4 26
20:45 1019 30.09 848 25.04 2.5 36.4 66 -3.2 26.2
20:50 1019 30.09 848 25.04 2.5 36.4 66 -3.3 26
20:55 1019 30.09 848 25.04 2.5 36.6 65 -3.4 25.9
21:00 1019 30.09 848 25.04 2.6 36.6 64 -3.5 25.8
21:05 1019 30.09 848 25.04 2.7 36.8 63 -3.6 25.5
21:10 1019 30.09 848 25.04 2.9 37.3 62 -3.7 25.4
21:15 1019 30.09 848 25.04 3.1 37.5 60 -3.8 25.1
21:20 1019 30.09 848 25.04 3.2 37.8 63 -3.1 26.5
21:25 1019 30.09 848 25.04 2.8 37.1 64 -3.2 26.2
21:30 1019 30.09 848 25.04 2.6 36.7 65 -3.3 26
21:35 1019 30.09 848 25.04 2.6 36.6 68 -2.8 27
21:40 1019 30.09 848 25.04 2.4 36.3 65 -3.4 25.8
21:45 1019 30.09 848 25.04 2.2 36 72 -2.4 27.7
21:50 1019 30.09 848 25.04 1.5 34.7 76 -2.4 27.7
21:55 1019 30.09 848 25.04 0.9 33.6 78 -2.6 27.4
22:00 1019 30.09 848 25.04 0.8 33.5 77 -2.8 27
22:05 1019 30.09 848 25.04 0.9 33.5 77 -2.8 27
22:10 1019 30.09 848 25.04 0.9 33.6 77 -2.7 27.2
22:15 1019 30.09 848 25.04 0.5 32.9 79 -2.8 27
22:20 1019 30.09 848 25.04 0.2 32.3 80 -2.9 26.8
22:25 1019 30.09 848 25.04 0.1 32.3 80 -2.9 26.7
22:30 1019 30.09 848 25.04 0.3 32.6 78 -3.1 26.4
22:35 1019 30.09 848 25.04 0.3 32.5 77 -3.2 26.2
22:40 1019 30.09 848 25.04 0.8 33.4 74 -3.3 26.1
22:45 1019 30.09 848 25.04 1.2 34.1 72 -3.2 26.2
22:50 1019 30.09 848 25.04 1.1 34 74 -3 26.6
22:55 1019 30.09 848 25.04 0.9 33.6 75 -3.1 26.4
23:00 1019 30.09 848 25.04 1 33.7 73 -3.3 26.1
23:05 1019 30.09 848 25.04 1.1 34.1 73 -3.2 26.3
23:10 1019 30.09 848 25.04 1.2 34.1 72 -3.4 25.9
23:15 1019 30.09 848 25.04 1.4 34.5 71 -3.3 26
23:20 1019 30.09 848 25.04 1.5 34.8 71 -3.2 26.2
23:25 1019 30.09 848 25.04 1.5 34.7 70 -3.4 25.9
23:30 1019 30.09 848 25.04 1.5 34.6 70 -3.4 25.9
23:35 1019 30.09 848 25.04 1.4 34.5 72 -3.2 26.2
23:40 1019 30.09 848 25.04 1.2 34.2 68 -3.9 24.9
23:45 1019 30.09 848 25.04 2 35.5 67 -3.4 25.8
23:50 1019 30.09 848 25.04 2 35.6 69 -3.2 26.3
23:55 1019 30.09 848 25.04 1.8 35.2 70 -3.1 26.3
24:00 1019 30.09 848 25.04 1.6 34.8 72 -3 26.7